createdAt,value
2022-10-29T00:00:16.939Z,87.10
2022-10-29T00:02:43.942Z,86.72
2022-10-29T00:05:11.077Z,87.26
2022-10-29T00:07:37.994Z,87.69
2022-10-29T00:10:05.404Z,86.70
2022-10-29T00:12:32.325Z,87.29
2022-10-29T00:14:59.267Z,88.05
2022-10-29T00:17:26.393Z,86.66
2022-10-29T00:19:53.553Z,87.81
2022-10-29T00:22:20.613Z,86.56
2022-10-29T00:24:47.672Z,87.39
2022-10-29T00:27:14.623Z,87.06
2022-10-29T00:29:42.239Z,88.22
2022-10-29T00:32:10.218Z,87.92
2022-10-29T00:34:38.040Z,88.21
2022-10-29T00:37:06.212Z,86.90
2022-10-29T00:39:35.925Z,88.31
2022-10-29T00:42:05.154Z,86.77
2022-10-29T00:44:39.167Z,86.91
2022-10-29T00:47:21.071Z,86.56
2022-10-29T00:50:01.787Z,87.06
2022-10-29T00:52:33.063Z,86.75
2022-10-29T00:55:03.181Z,86.78
2022-10-29T00:57:40.074Z,87.15
2022-10-29T01:00:07.646Z,87.22
2022-10-29T01:02:36.561Z,87.23
2022-10-29T01:05:05.377Z,86.61
2022-10-29T01:07:32.610Z,87.25
2022-10-29T01:09:59.931Z,86.99
2022-10-29T01:12:45.093Z,87.58
2022-10-29T01:15:18.267Z,86.68
2022-10-29T01:18:00.264Z,87.78
2022-10-29T01:20:58.450Z,87.11
2022-10-29T01:24:12.200Z,87.87
2022-10-29T01:27:16.752Z,87.68
2022-10-29T01:30:16.762Z,88.38
2022-10-29T01:32:43.642Z,88.34
2022-10-29T01:35:18.162Z,87.30
2022-10-29T01:38:09.131Z,87.93
2022-10-29T01:40:54.413Z,88.29
2022-10-29T01:43:36.631Z,87.25
2022-10-29T01:46:37.588Z,87.73
2022-10-29T01:49:11.255Z,88.64
2022-10-29T01:51:40.177Z,88.33
2022-10-29T01:54:10.629Z,87.60
2022-10-29T01:56:37.876Z,87.96
2022-10-29T01:59:14.455Z,87.17
2022-10-29T02:02:25.870Z,87.26
2022-10-29T02:05:15.717Z,87.72
2022-10-29T02:07:55.084Z,87.84
2022-10-29T02:10:33.359Z,88.30
2022-10-29T02:13:01.096Z,88.45
2022-10-29T02:15:35.851Z,87.61
2022-10-29T02:18:05.412Z,87.82
2022-10-29T02:20:32.981Z,87.81
2022-10-29T02:23:00.313Z,88.10
2022-10-29T02:25:28.535Z,88.96
2022-10-29T02:27:55.623Z,88.86
2022-10-29T02:30:30.703Z,88.12
2022-10-29T02:32:58.442Z,88.13
2022-10-29T02:35:25.566Z,89.28
2022-10-29T02:37:52.657Z,88.58
2022-10-29T02:40:22.642Z,88.12
2022-10-29T02:42:50.009Z,88.50
2022-10-29T02:45:17.572Z,89.19
2022-10-29T02:47:44.477Z,88.31
2022-10-29T02:50:11.684Z,88.46
2022-10-29T02:52:38.557Z,87.97
2022-10-29T02:55:06.055Z,89.02
2022-10-29T02:57:32.927Z,88.86
2022-10-29T02:59:59.877Z,88.20
2022-10-29T03:02:26.967Z,87.93
2022-10-29T03:04:53.971Z,88.51
2022-10-29T03:07:20.947Z,88.39
2022-10-29T03:09:48.072Z,88.13
2022-10-29T03:12:14.893Z,88.45
2022-10-29T03:14:42.097Z,88.82
2022-10-29T03:17:09.033Z,88.46
2022-10-29T03:19:36.043Z,89.01
2022-10-29T03:22:02.938Z,88.96
2022-10-29T03:24:30.141Z,88.87
2022-10-29T03:26:57.023Z,88.76
2022-10-29T03:29:27.058Z,88.83
2022-10-29T03:31:54.400Z,88.07
2022-10-29T03:34:21.275Z,89.14
2022-10-29T03:36:48.389Z,88.27
2022-10-29T03:39:16.428Z,88.54
2022-10-29T03:41:43.483Z,88.07
2022-10-29T03:44:10.461Z,88.90
2022-10-29T03:46:37.665Z,88.44
2022-10-29T03:49:04.764Z,88.28
2022-10-29T03:51:31.738Z,88.79
2022-10-29T03:53:58.615Z,88.92
2022-10-29T03:56:25.739Z,88.19
2022-10-29T03:58:52.938Z,88.91
2022-10-29T04:01:19.963Z,88.88
2022-10-29T04:03:47.231Z,88.50
2022-10-29T04:06:16.431Z,89.12
2022-10-29T04:08:43.298Z,88.06
2022-10-29T04:11:16.333Z,88.76
2022-10-29T04:13:43.181Z,88.37
2022-10-29T04:16:10.441Z,88.75
2022-10-29T04:18:37.254Z,88.47
2022-10-29T04:22:57.117Z,89.08
2022-10-29T04:29:27.208Z,88.05
2022-10-29T04:31:54.447Z,88.82
2022-10-29T04:34:21.421Z,88.98
2022-10-29T04:36:48.463Z,89.17
2022-10-29T04:39:18.301Z,89.50
2022-10-29T04:41:51.824Z,89.62
2022-10-29T04:44:18.834Z,88.87
2022-10-29T04:46:46.079Z,88.67
2022-10-29T04:49:14.666Z,89.31
2022-10-29T04:51:41.753Z,89.16
2022-10-29T04:54:08.981Z,88.88
2022-10-29T04:56:42.340Z,87.87
2022-10-29T04:59:09.455Z,88.27
2022-10-29T05:01:37.003Z,87.86
2022-10-29T05:04:04.649Z,88.55
2022-10-29T05:06:31.845Z,88.89
2022-10-29T05:08:58.821Z,88.72
2022-10-29T05:11:25.859Z,88.07
2022-10-29T05:13:52.901Z,89.32
2022-10-29T05:16:20.018Z,88.89
2022-10-29T05:18:47.597Z,88.51
2022-10-29T05:21:15.674Z,88.08
2022-10-29T05:23:42.619Z,87.80
2022-10-29T05:26:09.997Z,88.37
2022-10-29T05:28:39.967Z,89.48
2022-10-29T05:31:07.150Z,88.63
2022-10-29T05:33:34.405Z,89.42
2022-10-29T05:36:01.741Z,88.73
2022-10-29T05:38:31.089Z,89.66
2022-10-29T05:40:59.160Z,89.32
2022-10-29T05:43:29.185Z,88.98
2022-10-29T05:45:56.170Z,89.60
2022-10-29T05:48:29.266Z,89.44
2022-10-29T05:50:58.389Z,90.23
2022-10-29T05:53:26.104Z,90.22
2022-10-29T05:55:53.594Z,89.54
2022-10-29T05:58:20.868Z,89.74
2022-10-29T06:00:48.212Z,89.76
2022-10-29T06:03:17.824Z,90.53
2022-10-29T06:05:46.898Z,90.64
2022-10-29T06:08:14.776Z,91.16
2022-10-29T06:10:42.237Z,91.50
2022-10-29T06:13:20.912Z,91.93
2022-10-29T06:15:49.318Z,91.69
2022-10-29T06:18:17.192Z,92.19
2022-10-29T06:20:44.241Z,93.64
2022-10-29T06:23:12.060Z,93.53
2022-10-29T06:25:39.388Z,95.23
2022-10-29T06:28:19.619Z,96.46
2022-10-29T06:30:49.585Z,97.32
2022-10-29T06:33:18.486Z,100.00
2022-10-29T06:35:45.761Z,100.00
2022-10-29T06:38:13.174Z,100.00
2022-10-29T06:40:41.718Z,100.00
2022-10-29T06:43:12.070Z,100.00
2022-10-29T06:45:39.807Z,100.00
2022-10-29T06:48:07.650Z,100.00
2022-10-29T06:50:36.928Z,100.00
2022-10-29T06:53:06.354Z,100.00
2022-10-29T06:55:34.858Z,98.74
2022-10-29T06:58:04.545Z,97.12
2022-10-29T07:00:33.503Z,96.43
2022-10-29T07:03:01.406Z,95.24
2022-10-29T07:05:29.474Z,91.68
2022-10-29T07:08:01.055Z,89.01
2022-10-29T07:10:30.664Z,87.51
2022-10-29T07:12:58.682Z,86.79
2022-10-29T07:18:27.087Z,85.26
2022-10-29T07:20:58.132Z,84.15
2022-10-29T07:23:25.483Z,82.72
2022-10-29T07:25:57.081Z,81.09
2022-10-29T07:28:25.994Z,80.84
2022-10-29T07:33:52.664Z,78.90
2022-10-29T07:36:19.532Z,78.71
2022-10-29T07:38:47.519Z,77.68
2022-10-29T07:41:14.986Z,76.48
2022-10-29T07:43:42.295Z,76.55
2022-10-29T07:46:09.505Z,75.47
2022-10-29T07:48:36.476Z,74.82
2022-10-29T07:51:03.682Z,73.76
2022-10-29T07:53:33.884Z,72.23
2022-10-29T07:56:00.817Z,72.16
2022-10-29T07:58:28.160Z,70.34
2022-10-29T08:00:55.272Z,68.57
2022-10-29T08:03:22.277Z,67.81
2022-10-29T08:05:56.190Z,67.02
2022-10-29T08:08:24.328Z,66.73
2022-10-29T08:10:51.460Z,67.88
2022-10-29T08:13:18.911Z,66.59
2022-10-29T08:15:49.100Z,64.92
2022-10-29T08:18:17.998Z,63.92
2022-10-29T08:20:45.281Z,61.60
2022-10-29T08:23:13.844Z,60.12
2022-10-29T08:25:43.568Z,61.14
2022-10-29T08:28:14.171Z,60.79
2022-10-29T08:30:42.043Z,59.01
2022-10-29T08:33:10.515Z,59.39
2022-10-29T08:35:37.824Z,57.50
2022-10-29T08:38:04.974Z,57.66
2022-10-29T08:40:59.927Z,56.10
2022-10-29T08:46:53.357Z,55.85
2022-10-29T08:49:41.893Z,55.49
2022-10-29T08:52:20.557Z,54.19
2022-10-29T08:55:12.554Z,54.02
2022-10-29T08:57:44.136Z,52.33
2022-10-29T09:00:18.477Z,51.88
2022-10-29T09:02:45.593Z,51.57
2022-10-29T09:05:15.704Z,51.07
2022-10-29T09:07:48.658Z,51.11
2022-10-29T09:10:37.825Z,49.44
2022-10-29T09:13:42.205Z,48.79
2022-10-29T09:16:47.923Z,48.62
2022-10-29T09:19:41.035Z,48.89
2022-10-29T09:22:56.097Z,48.25
2022-10-29T09:25:26.516Z,47.72
2022-10-29T09:28:06.237Z,48.19
2022-10-29T09:30:43.395Z,47.30
2022-10-29T09:33:15.916Z,47.08
2022-10-29T09:36:17.527Z,46.86
2022-10-29T09:39:04.483Z,46.08
2022-10-29T09:41:33.755Z,45.44
2022-10-29T09:44:08.158Z,45.86
2022-10-29T09:46:47.601Z,45.56
2022-10-29T09:49:30.066Z,45.31
2022-10-29T09:52:24.403Z,45.41
2022-10-29T09:54:54.855Z,44.82
2022-10-29T09:57:29.756Z,44.29
2022-10-29T10:00:09.043Z,44.07
2022-10-29T10:02:54.915Z,43.44
2022-10-29T10:05:26.989Z,43.71
2022-10-29T10:08:14.843Z,43.86
2022-10-29T10:11:00.218Z,43.54
2022-10-29T10:13:30.791Z,43.56
2022-10-29T10:16:00.201Z,44.21
2022-10-29T10:18:33.317Z,44.10
2022-10-29T10:21:09.688Z,43.81
2022-10-29T10:23:44.516Z,43.12
2022-10-29T10:26:36.581Z,42.46
2022-10-29T10:29:04.898Z,41.84
2022-10-29T10:31:32.481Z,41.83
2022-10-29T10:33:59.772Z,42.10
2022-10-29T10:36:32.241Z,41.81
2022-10-29T10:39:01.249Z,41.48
2022-10-29T10:41:31.320Z,41.17
2022-10-29T10:44:02.508Z,41.00
2022-10-29T10:46:35.755Z,40.73
2022-10-29T10:49:17.708Z,40.77
2022-10-29T10:51:53.480Z,40.53
2022-10-29T10:54:29.705Z,41.55
2022-10-29T10:57:00.317Z,40.09
2022-10-29T10:59:47.147Z,39.57
2022-10-29T11:02:48.759Z,39.96
2022-10-29T11:05:38.821Z,39.63
2022-10-29T11:08:11.979Z,39.03
2022-10-29T11:10:54.323Z,39.04
2022-10-29T11:13:27.239Z,39.94
2022-10-29T11:16:15.721Z,38.44
2022-10-29T11:18:59.424Z,39.24
2022-10-29T11:21:38.421Z,38.27
2022-10-29T11:24:10.231Z,38.40
2022-10-29T11:26:53.940Z,38.30
2022-10-29T11:29:37.850Z,38.68
2022-10-29T11:32:25.956Z,37.82
2022-10-29T11:35:13.594Z,38.57
2022-10-29T11:37:48.178Z,37.47
2022-10-29T11:40:23.782Z,37.66
2022-10-29T11:42:51.512Z,37.84
2022-10-29T11:45:22.451Z,37.89
2022-10-29T11:47:52.479Z,36.56
2022-10-29T11:50:39.723Z,36.47
2022-10-29T11:53:30.135Z,37.03
2022-10-29T11:56:19.543Z,35.93
2022-10-29T11:59:01.799Z,36.69
2022-10-29T12:01:51.946Z,36.31
2022-10-29T12:04:27.720Z,36.39
2022-10-29T12:07:16.873Z,35.24
2022-10-29T12:09:59.948Z,35.31
2022-10-29T12:12:42.052Z,36.22
2022-10-29T12:15:18.211Z,35.01
2022-10-29T12:18:00.928Z,35.75
2022-10-29T12:20:42.792Z,35.68
2022-10-29T12:23:25.502Z,36.42
2022-10-29T12:26:16.106Z,35.18
2022-10-29T12:29:08.167Z,34.65
2022-10-29T12:31:45.365Z,34.94
2022-10-29T12:34:36.973Z,35.51
2022-10-29T12:37:29.656Z,35.80
2022-10-29T12:40:03.104Z,35.89
2022-10-29T12:42:31.167Z,35.14
2022-10-29T12:45:01.163Z,34.19
2022-10-29T12:47:46.334Z,34.10
2022-10-29T12:50:26.723Z,33.85
2022-10-29T12:53:19.790Z,34.66
2022-10-29T12:55:47.817Z,33.97
2022-10-29T12:58:52.017Z,33.37
2022-10-29T13:01:50.065Z,33.35
2022-10-29T13:04:32.231Z,32.14
2022-10-29T13:07:18.830Z,32.31
2022-10-29T13:09:48.388Z,33.62
2022-10-29T13:12:54.588Z,33.73
2022-10-29T13:18:41.865Z,31.29
2022-10-29T13:21:12.164Z,32.88
2022-10-29T13:24:02.189Z,32.64
2022-10-29T13:26:56.972Z,32.70
2022-10-29T13:29:46.109Z,32.77
2022-10-29T13:32:36.408Z,32.00
2022-10-29T13:35:20.887Z,32.20
2022-10-29T13:38:11.911Z,32.67
2022-10-29T13:40:54.810Z,33.40
2022-10-29T13:43:23.468Z,33.44
2022-10-29T13:46:26.701Z,33.85
2022-10-29T13:48:55.809Z,34.42
2022-10-29T13:51:40.188Z,35.62
2022-10-29T13:57:32.589Z,37.20
2022-10-29T14:00:02.429Z,37.58
2022-10-29T14:02:33.031Z,37.89
2022-10-29T14:05:16.462Z,39.09
2022-10-29T14:07:52.426Z,39.74
2022-10-29T14:10:24.967Z,39.48
2022-10-29T14:12:58.085Z,40.68
2022-10-29T14:15:25.719Z,41.31
2022-10-29T14:17:56.373Z,41.99
2022-10-29T14:20:27.800Z,42.00
2022-10-29T14:22:55.486Z,42.59
2022-10-29T14:25:29.573Z,44.05
2022-10-29T14:28:19.797Z,43.92
2022-10-29T14:30:49.132Z,44.73
2022-10-29T14:33:25.844Z,44.58
2022-10-29T14:36:04.257Z,45.72
2022-10-29T14:38:45.940Z,46.83
2022-10-29T14:41:14.977Z,47.26
2022-10-29T14:43:45.133Z,48.00
2022-10-29T14:46:21.550Z,49.19
2022-10-29T14:49:00.128Z,49.93
2022-10-29T14:51:28.622Z,52.74
2022-10-29T14:54:01.171Z,51.12
2022-10-29T14:56:38.701Z,50.70
2022-10-29T14:59:15.240Z,52.17
2022-10-29T15:01:53.993Z,52.37
2022-10-29T15:04:30.188Z,53.33
2022-10-29T15:07:24.765Z,54.97
2022-10-29T15:10:08.929Z,54.96
2022-10-29T15:12:39.215Z,56.42
2022-10-29T15:15:18.550Z,56.75
2022-10-29T15:17:49.730Z,57.64
2022-10-29T15:20:36.520Z,58.58
2022-10-29T15:23:04.527Z,58.89
2022-10-29T15:25:40.643Z,59.56
2022-10-29T15:28:29.765Z,60.11
2022-10-29T15:30:57.889Z,60.42
2022-10-29T15:33:29.926Z,60.90
2022-10-29T15:36:03.397Z,61.32
2022-10-29T15:38:30.306Z,61.26
2022-10-29T15:41:20.199Z,62.61
2022-10-29T15:43:55.671Z,63.13
2022-10-29T15:46:31.812Z,63.54
2022-10-29T15:48:59.078Z,64.52
2022-10-29T15:51:28.896Z,65.12
2022-10-29T15:53:57.789Z,64.61
2022-10-29T15:56:25.757Z,65.54
2022-10-29T15:58:53.609Z,66.31
2022-10-29T16:01:20.907Z,66.33
2022-10-29T16:03:48.367Z,67.92
2022-10-29T16:06:16.023Z,67.97
2022-10-29T16:08:48.341Z,68.46
2022-10-29T16:11:20.504Z,69.55
2022-10-29T16:13:54.422Z,69.47
2022-10-29T16:16:24.658Z,70.49
2022-10-29T16:18:52.893Z,70.45
2022-10-29T16:21:25.190Z,70.72
2022-10-29T16:23:53.392Z,71.04
2022-10-29T16:26:23.981Z,70.97
2022-10-29T16:28:53.594Z,71.26
2022-10-29T16:31:28.701Z,71.74
2022-10-29T16:33:59.379Z,73.11
2022-10-29T16:36:27.077Z,72.94
2022-10-29T16:38:54.400Z,73.64
2022-10-29T16:41:21.818Z,73.76
2022-10-29T16:43:49.097Z,73.86
2022-10-29T16:46:16.630Z,73.97
2022-10-29T16:48:43.756Z,75.00
2022-10-29T16:51:10.905Z,74.90
2022-10-29T16:53:38.213Z,74.74
2022-10-29T16:56:06.067Z,76.03
2022-10-29T16:58:32.842Z,75.31
2022-10-29T17:01:08.147Z,75.96
2022-10-29T17:03:35.848Z,75.75
2022-10-29T17:06:05.469Z,75.92
2022-10-29T17:08:34.093Z,76.01
2022-10-29T17:11:06.231Z,76.68
2022-10-29T17:13:35.077Z,76.56
2022-10-29T17:16:10.158Z,77.34
2022-10-29T17:18:37.191Z,77.08
2022-10-29T17:21:04.371Z,77.60
2022-10-29T17:23:33.804Z,77.36
2022-10-29T17:26:01.170Z,77.48
2022-10-29T17:28:28.778Z,78.10
2022-10-29T17:30:56.047Z,78.09
2022-10-29T17:33:23.204Z,78.16
2022-10-29T17:35:50.624Z,78.94
2022-10-29T17:38:18.209Z,79.12
2022-10-29T17:40:46.445Z,79.54
2022-10-29T17:43:13.743Z,79.89
2022-10-29T17:45:42.644Z,80.04
2022-10-29T17:48:09.572Z,79.75
2022-10-29T17:50:36.711Z,80.20
2022-10-29T17:53:04.096Z,80.63
2022-10-29T17:55:31.314Z,80.70
2022-10-29T17:57:58.907Z,80.69
2022-10-29T18:00:26.824Z,80.38
2022-10-29T18:02:53.996Z,80.60
2022-10-29T18:05:21.127Z,80.28
2022-10-29T18:07:48.234Z,80.39
2022-10-29T18:10:17.087Z,80.66
2022-10-29T18:12:44.594Z,80.93
2022-10-29T18:15:11.702Z,80.70
2022-10-29T18:17:40.744Z,81.18
2022-10-29T18:20:08.447Z,81.12
2022-10-29T18:22:36.185Z,81.43
2022-10-29T18:25:03.741Z,81.71
2022-10-29T18:27:31.064Z,81.79
2022-10-29T18:29:58.247Z,81.80
2022-10-29T18:32:25.545Z,82.29
2022-10-29T18:34:52.718Z,81.91
2022-10-29T18:37:19.996Z,82.46
2022-10-29T18:39:47.150Z,82.42
2022-10-29T18:42:14.413Z,82.10
2022-10-29T18:44:41.471Z,82.18
2022-10-29T18:47:09.779Z,82.42
2022-10-29T18:49:37.321Z,82.92
2022-10-29T18:52:04.812Z,83.11
2022-10-29T18:54:32.008Z,82.48
2022-10-29T18:56:59.148Z,82.62
2022-10-29T18:59:26.563Z,82.84
2022-10-29T19:01:53.776Z,82.61
2022-10-29T19:04:21.223Z,82.46
2022-10-29T19:06:48.411Z,82.30
2022-10-29T19:09:15.635Z,82.60
2022-10-29T19:11:42.721Z,83.03
2022-10-29T19:14:13.556Z,82.80
2022-10-29T19:16:40.785Z,82.52
2022-10-29T19:19:11.513Z,82.50
2022-10-29T19:21:39.797Z,82.71
2022-10-29T19:24:08.144Z,82.87
2022-10-29T19:26:36.543Z,83.27
2022-10-29T19:29:07.749Z,83.12
2022-10-29T19:31:36.202Z,83.09
2022-10-29T19:34:06.374Z,83.89
2022-10-29T19:36:35.184Z,84.00
2022-10-29T19:39:02.593Z,84.88
2022-10-29T19:41:30.281Z,84.92
2022-10-29T19:44:01.672Z,85.16
2022-10-29T19:46:30.062Z,84.34
2022-10-29T19:49:01.232Z,84.86
2022-10-29T19:51:31.175Z,84.44
2022-10-29T19:53:58.875Z,84.85
2022-10-29T19:56:25.815Z,85.33
2022-10-29T19:58:52.886Z,85.07
2022-10-29T20:01:19.897Z,84.44
2022-10-29T20:03:47.779Z,84.37
2022-10-29T20:06:16.136Z,84.87
2022-10-29T20:08:43.227Z,85.41
2022-10-29T20:11:10.208Z,85.36
2022-10-29T20:13:38.107Z,85.21
2022-10-29T20:16:10.757Z,84.92
2022-10-29T20:18:38.845Z,85.02
2022-10-29T20:23:38.145Z,85.53
2022-10-29T20:26:06.115Z,85.31
2022-10-29T20:28:33.360Z,85.88
2022-10-29T20:31:18.658Z,86.09
2022-10-29T20:33:55.896Z,86.37
2022-10-29T20:36:24.828Z,86.01
2022-10-29T20:38:52.797Z,86.16
2022-10-29T20:41:20.881Z,86.17
2022-10-29T20:43:56.561Z,86.05
2022-10-29T20:46:25.093Z,85.86
2022-10-29T20:48:52.272Z,85.53
2022-10-29T20:51:19.423Z,85.91
2022-10-29T20:53:46.950Z,86.28
2022-10-29T20:56:16.250Z,86.02
2022-10-29T20:58:46.795Z,85.53
2022-10-29T21:01:17.018Z,85.59
2022-10-29T21:03:44.743Z,85.73
2022-10-29T21:06:17.046Z,85.99
2022-10-29T21:08:46.239Z,86.12
2022-10-29T21:11:14.927Z,86.06
2022-10-29T21:13:42.407Z,85.87
2022-10-29T21:16:24.415Z,85.81
2022-10-29T21:18:53.701Z,86.97
2022-10-29T21:21:21.181Z,87.48
2022-10-29T21:23:48.283Z,86.84
2022-10-29T21:26:20.482Z,87.28
2022-10-29T21:28:49.061Z,86.50
2022-10-29T21:31:16.905Z,86.45
2022-10-29T21:33:44.017Z,86.83
2022-10-29T21:36:16.805Z,87.11
2022-10-29T21:38:43.887Z,86.79
2022-10-29T21:41:11.301Z,87.47
2022-10-29T21:43:39.539Z,86.78
2022-10-29T21:46:07.373Z,86.88
2022-10-29T21:48:34.614Z,86.55
2022-10-29T21:51:04.042Z,87.30
2022-10-29T21:53:31.597Z,87.77
2022-10-29T21:56:00.814Z,87.07
2022-10-29T21:58:28.674Z,87.23
2022-10-29T22:01:14.000Z,86.79
2022-10-29T22:03:43.148Z,87.17
2022-10-29T22:06:17.399Z,87.26
2022-10-29T22:08:45.362Z,87.82
2022-10-29T22:11:13.544Z,87.36
2022-10-29T22:13:41.234Z,87.42
2022-10-29T22:16:09.123Z,86.72
2022-10-29T22:18:37.377Z,86.53
2022-10-29T22:21:07.242Z,87.31
2022-10-29T22:23:35.299Z,86.79
2022-10-29T22:26:02.126Z,86.25
2022-10-29T22:28:29.349Z,86.82
2022-10-29T22:31:01.133Z,87.49
2022-10-29T22:33:29.351Z,86.84
2022-10-29T22:35:56.803Z,86.84
2022-10-29T22:38:23.841Z,87.81
2022-10-29T22:40:50.831Z,87.38
2022-10-29T22:43:17.827Z,87.90
2022-10-29T22:45:46.416Z,86.44
2022-10-29T22:48:13.395Z,87.81
2022-10-29T22:50:42.216Z,86.99
2022-10-29T22:53:09.464Z,86.44
2022-10-29T22:55:36.386Z,86.85
2022-10-29T22:58:03.477Z,87.38
2022-10-29T23:00:30.744Z,87.41
2022-10-29T23:02:57.878Z,87.29
2022-10-29T23:05:25.556Z,86.97
2022-10-29T23:07:52.690Z,88.19
2022-10-29T23:10:19.617Z,87.33
2022-10-29T23:12:46.633Z,86.96
2022-10-29T23:15:14.214Z,87.44
2022-10-29T23:17:41.160Z,88.12
2022-10-29T23:20:08.546Z,87.12
2022-10-29T23:22:35.572Z,87.22
2022-10-29T23:25:02.673Z,88.12
2022-10-29T23:27:29.815Z,86.93
2022-10-29T23:29:57.063Z,88.10
2022-10-29T23:32:24.189Z,87.29
2022-10-29T23:34:51.212Z,87.05
2022-10-29T23:37:18.845Z,87.87
2022-10-29T23:39:45.971Z,88.40
2022-10-29T23:42:13.038Z,87.29
2022-10-29T23:44:39.985Z,87.63
2022-10-29T23:47:06.926Z,88.35
2022-10-29T23:49:33.954Z,86.82
2022-10-29T23:52:01.033Z,87.52
2022-10-29T23:54:28.230Z,87.13
2022-10-29T23:56:55.251Z,88.41
2022-10-29T23:59:22.422Z,87.27
